Aviation Digital Data Service (ADDS)

Output produced by METARs form (0028 UTC 25 November 2014)
found at http://aviationweather.gov/adds/metars/
 
KRME 242341Z 2500/2524 16015G22KT P6SM BKN040 
     TEMPO 2500/2502 25015G30KT -SHRA 
     FM250200 25015G28KT P6SM BKN040